Time;durP1;ratioP1;P1;durP2;ratioP2;P2;SDS_P1;SDS_P2;PMS_P1;PMS_P2;Temp;Humidity;BMP_temperature;BMP_pressure;BME280_temperature;BME280_humidity;BME280_pressure;Samples;Min_cycle;Max_cycle;Signal;HPM_P1;HPM_P2
2023/03/31 00:02:12;;;;;;;3.97;1.35;;;15.60;71.40;;;;;;10341104;28;20146;-55
2023/03/31 00:07:15;;;;;;;3.35;1.50;;;15.60;71.40;;;;;;10331683;28;20429;-55
2023/03/31 00:12:16;;;;;;;2.45;1.20;;;15.60;71.30;;;;;;10331621;28;20034;-55
2023/03/31 00:17:17;;;;;;;4.22;1.70;;;15.60;71.40;;;;;;10331624;28;20054;-55
2023/03/31 00:22:20;;;;;;;2.97;1.73;;;15.60;71.30;;;;;;10331152;28;20056;-55
2023/03/31 00:27:21;;;;;;;3.53;1.73;;;15.60;71.30;;;;;;10330432;28;20544;-55
2023/03/31 00:32:22;;;;;;;2.08;1.33;;;15.60;71.30;;;;;;10330749;28;20065;-55
2023/03/31 00:37:23;;;;;;;2.78;1.38;;;15.60;71.90;;;;;;10330323;28;20057;-55
2023/03/31 00:42:24;;;;;;;2.80;1.40;;;15.60;71.30;;;;;;10330237;28;20022;-55
2023/03/31 00:47:28;;;;;;;4.22;2.17;;;15.60;71.20;;;;;;10329695;28;20485;-55
2023/03/31 00:52:36;;;;;;;3.85;1.67;;;15.60;71.80;;;;;;10328644;28;20409;-55
2023/03/31 00:57:39;;;;;;;2.67;1.17;;;15.60;71.20;;;;;;10327526;28;20106;-55
2023/03/31 01:02:51;;;;;;;4.22;1.70;;;15.60;71.20;;;;;;10338459;28;20042;-53
2023/03/31 01:07:54;;;;;;;3.65;1.35;;;15.50;71.20;;;;;;10326726;28;20073;-55
2023/03/31 01:12:56;;;;;;;2.63;1.00;;;15.50;71.20;;;;;;10326310;28;20474;-55
2023/03/31 01:17:57;;;;;;;3.80;1.55;;;15.60;71.20;;;;;;10326794;28;20665;-55
2023/03/31 01:23:18;;;;;;;1.92;1.08;;;15.50;71.10;;;;;;10327054;28;20038;-54
2023/03/31 01:28:37;;;;;;;2.90;1.00;;;15.50;71.10;;;;;;10328428;28;20593;-55
2023/03/31 01:33:53;;;;;;;3.08;1.33;;;15.50;71.10;;;;;;10328498;28;20034;-54
2023/03/31 01:39:36;;;;;;;4.63;1.88;;;15.50;71.10;;;;;;10326629;28;20026;-54
2023/03/31 01:44:44;;;;;;;2.90;1.63;;;15.50;71.10;;;;;;10327729;28;20046;-54
2023/03/31 01:50:02;;;;;;;3.07;1.30;;;15.50;71.00;;;;;;10326808;28;20673;-55
2023/03/31 01:55:15;;;;;;;3.22;1.02;;;15.50;71.10;;;;;;10325653;28;20026;-55
2023/03/31 02:00:24;;;;;;;2.83;1.40;;;15.50;71.00;;;;;;10336560;28;20077;-54
2023/03/31 02:05:35;;;;;;;2.58;1.10;;;15.50;71.00;;;;;;10325728;28;20069;-54
2023/03/31 02:10:37;;;;;;;2.05;0.90;;;15.50;71.00;;;;;;10324909;28;20350;-55
2023/03/31 02:15:45;;;;;;;2.55;1.33;;;15.50;71.00;;;;;;10325679;28;20031;-54
2023/03/31 02:20:48;;;;;;;2.55;1.00;;;15.50;71.00;;;;;;10309449;28;20609;-55
2023/03/31 02:26:01;;;;;;;3.63;1.10;;;15.50;71.00;;;;;;10324712;28;20481;-54
2023/03/31 02:31:16;;;;;;;2.05;1.02;;;15.50;71.00;;;;;;10325185;28;20026;-55
2023/03/31 02:36:17;;;;;;;1.92;1.08;;;15.50;71.00;;;;;;10324959;28;20027;-55
2023/03/31 02:41:18;;;;;;;3.08;1.02;;;15.50;71.00;;;;;;10323963;28;20061;-55
2023/03/31 02:46:19;;;;;;;2.05;1.20;;;15.50;71.00;;;;;;10324449;28;20030;-54
2023/03/31 02:51:42;;;;;;;1.92;0.88;;;15.40;70.90;;;;;;10323359;28;20030;-54
2023/03/31 02:57:19;;;;;;;2.22;0.90;;;15.40;71.00;;;;;;10323882;28;20030;-54
2023/03/31 03:02:55;;;;;;;1.77;0.88;;;15.40;70.90;;;;;;10335047;28;20074;-55
2023/03/31 03:08:23;;;;;;;3.22;1.23;;;15.40;70.80;;;;;;10324686;28;20157;-54
2023/03/31 03:13:45;;;;;;;2.10;0.88;;;15.40;70.90;;;;;;10323243;28;20033;-55
2023/03/31 03:19:05;;;;;;;2.75;0.90;;;15.40;70.90;;;;;;10323830;28;20058;-55
2023/03/31 03:24:06;;;;;;;2.28;1.10;;;15.40;70.90;;;;;;10324052;28;20026;-54
2023/03/31 03:29:07;;;;;;;1.30;0.90;;;15.40;70.90;;;;;;10324311;28;20528;-55
2023/03/31 03:34:08;;;;;;;2.70;1.00;;;15.40;70.90;;;;;;10323825;28;20017;-54
2023/03/31 03:39:09;;;;;;;1.88;0.93;;;15.40;70.90;;;;;;10323653;28;20033;-55
2023/03/31 03:44:10;;;;;;;2.20;1.08;;;15.40;70.80;;;;;;10323892;28;20054;-54
2023/03/31 03:49:10;;;;;;;2.83;1.35;;;15.40;70.90;;;;;;10323649;28;20019;-55
2023/03/31 03:54:12;;;;;;;2.88;0.82;;;15.30;70.80;;;;;;10322264;28;20505;-54
2023/03/31 03:59:12;;;;;;;3.20;0.90;;;15.30;70.90;;;;;;10327968;28;20492;-55
2023/03/31 04:04:14;;;;;;;2.35;0.95;;;15.40;70.90;;;;;;10328287;28;20061;-55
2023/03/31 04:09:14;;;;;;;1.25;0.77;;;15.40;71.10;;;;;;10322618;28;20026;-56
2023/03/31 04:14:15;;;;;;;1.55;0.90;;;15.50;70.70;;;;;;10322291;28;20081;-55
2023/03/31 04:19:20;;;;;;;1.33;0.80;;;15.70;70.20;;;;;;10321286;28;20109;-54
2023/03/31 04:24:21;;;;;;;1.42;0.60;;;15.90;69.60;;;;;;10319695;28;20022;-54
2023/03/31 04:29:25;;;;;;;2.13;0.70;;;16.10;68.90;;;;;;10321931;28;20552;-55
2023/03/31 04:34:33;;;;;;;1.90;1.00;;;16.10;68.90;;;;;;10328661;28;20030;-54
2023/03/31 04:39:34;;;;;;;1.52;0.60;;;16.10;68.70;;;;;;10328936;28;20014;-53
2023/03/31 04:44:34;;;;;;;3.13;1.88;;;16.20;68.80;;;;;;10328721;28;20058;-55
2023/03/31 04:49:35;;;;;;;2.47;1.02;;;16.20;68.90;;;;;;10328575;28;20109;-55
2023/03/31 04:54:36;;;;;;;5.63;1.40;;;16.20;69.50;;;;;;10328973;28;20125;-55
2023/03/31 04:59:37;;;;;;;13.27;1.85;;;16.30;70.30;;;;;;10339030;28;20048;-57
2023/03/31 05:04:37;;;;;;;3.67;1.10;;;16.30;70.70;;;;;;10331395;28;20141;-56
2023/03/31 05:09:38;;;;;;;16.85;2.47;;;16.40;70.60;;;;;;10329133;28;20488;-56
2023/03/31 05:14:39;;;;;;;24.08;2.83;;;16.40;70.80;;;;;;10329148;28;20105;-57
2023/03/31 05:19:39;;;;;;;19.52;2.15;;;16.40;71.80;;;;;;10328460;28;20105;-55
2023/03/31 05:24:40;;;;;;;30.85;3.00;;;16.40;71.40;;;;;;10325884;28;20041;-54
2023/03/31 05:29:41;;;;;;;16.92;2.25;;;16.30;71.80;;;;;;10327787;28;20050;-55
2023/03/31 05:34:42;;;;;;;20.70;4.70;;;16.30;72.00;;;;;;10326027;28;20106;-56
2023/03/31 05:39:42;;;;;;;19.85;2.88;;;16.20;71.70;;;;;;10326958;28;20026;-56
2023/03/31 05:44:43;;;;;;;13.10;3.55;;;16.10;71.70;;;;;;10326288;28;20038;-54
2023/03/31 05:49:44;;;;;;;23.60;2.70;;;16.00;71.90;;;;;;10333228;28;20105;-55
2023/03/31 05:54:45;;;;;;;14.57;3.45;;;16.00;72.00;;;;;;10325003;28;20024;-54
2023/03/31 05:59:45;;;;;;;15.80;2.72;;;16.00;71.90;;;;;;10328455;28;20105;-54
2023/03/31 06:04:46;;;;;;;20.02;3.22;;;16.00;71.80;;;;;;10324832;28;20628;-56
2023/03/31 06:09:47;;;;;;;19.65;2.67;;;16.10;72.00;;;;;;10321548;28;20109;-56
2023/03/31 06:14:47;;;;;;;15.40;3.05;;;16.10;72.10;;;;;;10319352;28;20046;-56
2023/03/31 06:19:48;;;;;;;23.42;4.22;;;16.00;72.30;;;;;;10324484;28;20507;-56
2023/03/31 06:24:48;;;;;;;21.05;3.58;;;16.00;71.90;;;;;;10322932;28;20117;-55
2023/03/31 06:29:49;;;;;;;14.88;2.78;;;16.10;71.40;;;;;;10319409;28;20113;-55
2023/03/31 06:34:50;;;;;;;20.40;2.72;;;16.50;70.40;;;;;;10321205;28;20023;-55
2023/03/31 06:39:50;;;;;;;17.65;3.00;;;16.80;70.40;;;;;;10323602;28;20141;-56
2023/03/31 06:44:51;;;;;;;18.60;3.35;;;17.20;69.30;;;;;;10319198;28;20109;-55
2023/03/31 06:49:52;;;;;;;12.73;2.97;;;17.50;68.40;;;;;;10322414;28;20098;-55
2023/03/31 06:54:52;;;;;;;21.33;3.97;;;17.30;68.70;;;;;;10321127;28;20027;-55
2023/03/31 06:59:53;;;;;;;22.05;4.38;;;17.50;67.70;;;;;;10332055;28;20069;-56
2023/03/31 07:04:54;;;;;;;17.55;4.05;;;17.70;66.70;;;;;;10323290;28;20096;-55
2023/03/31 07:09:55;;;;;;;25.90;3.30;;;17.70;67.20;;;;;;10323760;28;20161;-56
2023/03/31 07:14:55;;;;;;;19.55;3.03;;;17.80;66.60;;;;;;10323598;28;20059;-55
2023/03/31 07:19:56;;;;;;;16.17;2.45;;;17.70;66.80;;;;;;10324541;28;20422;-55
2023/03/31 07:24:57;;;;;;;15.90;4.15;;;17.80;66.70;;;;;;10323013;28;20165;-56
2023/03/31 07:29:58;;;;;;;17.50;2.72;;;17.80;66.90;;;;;;10322660;28;20105;-55
2023/03/31 07:34:58;;;;;;;16.92;2.75;;;17.70;67.80;;;;;;10323221;28;20033;-54
2023/03/31 07:39:59;;;;;;;14.13;2.97;;;17.70;67.50;;;;;;10323209;28;20030;-54
2023/03/31 07:45:00;;;;;;;16.75;3.05;;;17.60;67.60;;;;;;10323614;28;20070;-55
2023/03/31 07:50:02;;;;;;;10.60;2.90;;;17.60;70.10;;;;;;10319863;28;20026;-54
2023/03/31 07:55:04;;;;;;;15.23;2.90;;;17.50;72.80;;;;;;10322316;28;20026;-56
2023/03/31 08:00:09;;;;;;;15.68;2.42;;;17.50;73.10;;;;;;10322353;28;20030;-54
2023/03/31 08:05:13;;;;;;;16.02;3.00;;;17.50;72.60;;;;;;10323474;28;20042;-55
2023/03/31 08:10:24;;;;;;;10.07;2.00;;;17.60;72.50;;;;;;10328817;28;20122;-55
2023/03/31 08:15:24;;;;;;;12.25;2.22;;;17.50;70.90;;;;;;10330714;28;20085;-56
2023/03/31 08:20:25;;;;;;;13.98;2.30;;;17.50;70.60;;;;;;10331010;28;20073;-55
2023/03/31 08:25:26;;;;;;;12.45;1.73;;;17.60;70.10;;;;;;10330009;28;20042;-55
2023/03/31 08:30:26;;;;;;;8.68;2.45;;;17.70;69.80;;;;;;10328417;28;20126;-55
2023/03/31 08:35:27;;;;;;;8.60;1.95;;;17.50;70.80;;;;;;10324651;28;20072;-55
2023/03/31 08:40:30;;;;;;;10.73;2.28;;;17.50;71.50;;;;;;10325945;28;20142;-54
2023/03/31 08:45:36;;;;;;;10.85;2.17;;;17.60;71.50;;;;;;10331110;28;20046;-54
2023/03/31 08:50:46;;;;;;;18.80;3.63;;;17.70;71.30;;;;;;10324327;28;20033;-56
2023/03/31 08:55:53;;;;;;;11.65;2.78;;;17.70;71.60;;;;;;10324299;28;20077;-56
2023/03/31 09:01:20;;;;;;;18.45;3.10;;;17.60;71.80;;;;;;10338657;28;20080;-53
2023/03/31 09:06:37;;;;;;;11.90;1.80;;;17.50;72.00;;;;;;10326949;28;20530;-54
2023/03/31 09:11:53;;;;;;;11.98;1.70;;;17.50;72.10;;;;;;10325051;28;20101;-54
2023/03/31 09:17:14;;;;;;;10.35;2.40;;;17.40;72.30;;;;;;10326669;28;20105;-56
2023/03/31 09:22:22;;;;;;;16.65;2.50;;;17.20;72.70;;;;;;10326614;28;20158;-56
2023/03/31 09:27:25;;;;;;;10.88;2.55;;;17.10;72.90;;;;;;10321044;28;20799;-56
2023/03/31 09:32:29;;;;;;;15.77;3.25;;;17.00;73.40;;;;;;10327011;28;20154;-56
2023/03/31 09:37:32;;;;;;;13.77;1.83;;;17.00;73.50;;;;;;10328366;28;20109;-56
2023/03/31 09:42:34;;;;;;;11.70;2.08;;;16.90;73.50;;;;;;10326554;28;20045;-56
2023/03/31 09:47:42;;;;;;;9.55;1.95;;;16.90;73.60;;;;;;10328056;28;20040;-56
2023/03/31 09:52:59;;;;;;;7.95;1.52;;;17.00;73.60;;;;;;10326394;28;20022;-55
2023/03/31 09:58:02;;;;;;;7.72;1.90;;;17.00;73.40;;;;;;10325568;28;20550;-56
2023/03/31 10:03:07;;;;;;;6.63;1.63;;;17.10;73.20;;;;;;10337692;28;20654;-55
2023/03/31 10:08:16;;;;;;;11.25;2.33;;;17.10;73.10;;;;;;10326966;28;20511;-56
2023/03/31 10:13:24;;;;;;;7.32;1.75;;;17.20;73.00;;;;;;10325807;28;20031;-55
2023/03/31 10:18:36;;;;;;;8.40;1.55;;;17.30;72.60;;;;;;10325555;28;20014;-56
2023/03/31 10:23:37;;;;;;;5.43;1.73;;;17.30;72.50;;;;;;10324517;28;20072;-55
2023/03/31 10:28:39;;;;;;;7.30;2.03;;;17.20;72.60;;;;;;10324967;28;20460;-55
2023/03/31 10:33:48;;;;;;;5.60;1.00;;;17.20;73.20;;;;;;10324752;28;20347;-56
2023/03/31 10:38:51;;;;;;;4.03;1.13;;;17.30;73.20;;;;;;10322616;28;20168;-58
2023/03/31 10:44:02;;;;;;;7.18;1.73;;;17.30;73.40;;;;;;10317257;28;20042;-54
2023/03/31 10:49:26;;;;;;;11.35;1.77;;;17.40;73.50;;;;;;10322029;28;20026;-54
2023/03/31 10:54:26;;;;;;;8.50;2.00;;;17.40;73.60;;;;;;10322914;28;20587;-55
2023/03/31 10:59:50;;;;;;;4.25;2.08;;;17.40;73.80;;;;;;10320819;28;20110;-57
2023/03/31 11:05:34;;;;;;;11.85;1.65;;;17.40;73.80;;;;;;10322341;28;20059;-58
2023/03/31 11:10:51;;;;;;;9.18;1.70;;;17.30;74.20;;;;;;10320750;28;20473;-56
2023/03/31 11:16:21;;;;;;;9.90;1.73;;;17.30;73.90;;;;;;10320342;28;20061;-52
2023/03/31 11:21:55;;;;;;;8.70;1.42;;;17.30;74.10;;;;;;10320193;28;20031;-56
2023/03/31 11:27:23;;;;;;;6.38;1.85;;;17.20;73.90;;;;;;10307294;28;20038;-56
2023/03/31 11:33:11;;;;;;;10.57;1.60;;;17.10;74.00;;;;;;10320798;28;20054;-55
2023/03/31 11:38:32;;;;;;;7.10;1.33;;;17.00;74.10;;;;;;10320556;28;20518;-54
2023/03/31 11:43:59;;;;;;;11.77;1.85;;;16.90;74.20;;;;;;10321143;28;20505;-52
2023/03/31 11:49:04;;;;;;;10.23;1.65;;;16.90;74.50;;;;;;10320069;28;20554;-54
2023/03/31 11:54:11;;;;;;;8.75;1.70;;;16.90;74.40;;;;;;10320257;28;20084;-55
2023/03/31 11:59:16;;;;;;;11.32;2.97;;;16.80;74.40;;;;;;10323515;28;20026;-55
2023/03/31 12:04:37;;;;;;;6.80;1.30;;;16.80;74.20;;;;;;10326154;28;20050;-55
2023/03/31 12:10:01;;;;;;;6.78;1.52;;;16.70;74.10;;;;;;10320597;28;20031;-55
2023/03/31 12:15:28;;;;;;;8.43;1.63;;;16.70;74.10;;;;;;10313272;28;20035;-55
2023/03/31 12:20:44;;;;;;;9.68;1.98;;;16.70;74.00;;;;;;10321788;28;20102;-55
2023/03/31 12:26:06;;;;;;;10.20;2.30;;;16.70;74.10;;;;;;10316945;28;20507;-56
2023/03/31 12:31:17;;;;;;;11.85;1.88;;;16.90;74.00;;;;;;10320073;28;20042;-55
2023/03/31 12:36:35;;;;;;;12.35;2.30;;;17.00;73.40;;;;;;10322284;28;20019;-55
2023/03/31 12:42:11;;;;;;;11.27;2.42;;;17.10;73.30;;;;;;10320987;28;20037;-56
2023/03/31 12:47:32;;;;;;;12.35;3.10;;;16.90;73.90;;;;;;10309265;28;20026;-55
2023/03/31 12:52:54;;;;;;;9.75;1.88;;;16.80;74.40;;;;;;10317093;28;20034;-54
2023/03/31 12:58:27;;;;;;;11.05;2.22;;;16.80;74.60;;;;;;10315358;28;20032;-56
2023/03/31 13:04:10;;;;;;;9.25;2.40;;;16.80;74.80;;;;;;10333386;28;20061;-55
2023/03/31 13:09:45;;;;;;;10.93;3.08;;;16.80;74.90;;;;;;10326147;28;20034;-55
2023/03/31 13:14:52;;;;;;;14.32;2.25;;;16.80;75.00;;;;;;10325843;28;20065;-53
2023/03/31 13:19:54;;;;;;;11.75;2.22;;;17.10;74.50;;;;;;10325502;28;20030;-56
2023/03/31 13:25:41;;;;;;;9.52;1.83;;;17.10;74.70;;;;;;10327471;28;20030;-54
2023/03/31 13:30:42;;;;;;;11.02;2.10;;;17.10;74.90;;;;;;10325264;28;20018;-54
2023/03/31 13:35:49;;;;;;;13.23;2.00;;;17.10;74.70;;;;;;10327342;28;20034;-54
2023/03/31 13:41:28;;;;;;;11.45;1.90;;;17.10;74.90;;;;;;10327286;28;20021;-55
2023/03/31 13:46:56;;;;;;;6.97;1.80;;;17.10;75.10;;;;;;10324839;28;20065;-57
2023/03/31 13:52:01;;;;;;;11.45;1.70;;;17.10;74.80;;;;;;10326580;28;20378;-56
2023/03/31 13:57:42;;;;;;;16.65;2.28;;;17.10;74.90;;;;;;10326262;28;20023;-56
2023/03/31 14:03:21;;;;;;;;;;;17.00;74.60;;;;;;10327483;28;20050;-55
2023/03/31 14:08:37;;;;;;;12.80;3.28;;;17.00;74.80;;;;;;10326512;28;20525;-55
2023/03/31 14:13:38;;;;;;;12.45;2.38;;;16.90;74.80;;;;;;10325729;28;20053;-54
2023/03/31 14:18:48;;;;;;;23.70;4.30;;;16.90;75.30;;;;;;10324407;28;20061;-53
2023/03/31 14:24:13;;;;;;;20.92;3.65;;;17.10;75.30;;;;;;10324627;28;20030;-52
2023/03/31 14:29:42;;;;;;;11.02;3.10;;;17.40;75.10;;;;;;10324769;28;20058;-55
2023/03/31 14:34:59;;;;;;;16.27;2.55;;;17.60;76.40;;;;;;10318023;28;20129;-54
2023/03/31 14:40:02;;;;;;;20.48;3.55;;;17.70;76.90;;;;;;10324688;28;20081;-56
2023/03/31 14:45:30;;;;;;;17.85;3.38;;;17.80;75.30;;;;;;10320948;28;20549;-53
2023/03/31 14:50:34;;;;;;;21.23;3.85;;;17.70;75.80;;;;;;10323606;28;20042;-57
2023/03/31 14:55:35;;;;;;;18.55;3.20;;;17.50;75.60;;;;;;10322865;28;20030;-57
2023/03/31 15:00:39;;;;;;;21.88;2.70;;;17.40;76.00;;;;;;10321317;28;20370;-55
2023/03/31 15:05:42;;;;;;;16.70;3.65;;;17.30;76.00;;;;;;10322530;28;20050;-51
2023/03/31 15:10:49;;;;;;;22.58;3.55;;;17.20;76.00;;;;;;10321424;28;20706;-54
2023/03/31 15:15:50;;;;;;;17.13;3.40;;;17.20;76.30;;;;;;10319636;28;20797;-54
2023/03/31 15:20:51;;;;;;;13.38;2.33;;;17.10;76.00;;;;;;10330763;28;20022;-55
2023/03/31 15:26:00;;;;;;;17.05;3.25;;;17.00;76.10;;;;;;10314180;28;20122;-52
2023/03/31 15:31:02;;;;;;;10.93;2.45;;;17.10;75.90;;;;;;10319965;28;20050;-54
2023/03/31 15:36:03;;;;;;;10.43;2.47;;;16.90;76.10;;;;;;10323032;28;20027;-54
2023/03/31 15:41:18;;;;;;;9.73;2.35;;;16.90;75.80;;;;;;10322981;28;20460;-55
2023/03/31 15:46:43;;;;;;;11.48;3.90;;;16.90;75.60;;;;;;10321029;28;20469;-55
2023/03/31 15:51:46;;;;;;;10.25;3.45;;;17.10;75.60;;;;;;10320948;28;20109;-54
2023/03/31 15:56:47;;;;;;;10.63;3.83;;;17.10;75.30;;;;;;10321025;28;20038;-55
2023/03/31 16:01:49;;;;;;;15.35;2.45;;;17.20;75.90;;;;;;10321265;28;20549;-56
2023/03/31 16:06:57;;;;;;;19.70;2.60;;;17.30;76.50;;;;;;10314522;28;20039;-56
2023/03/31 16:12:03;;;;;;;14.15;2.70;;;17.60;78.00;;;;;;10321310;28;20425;-53
2023/03/31 16:17:11;;;;;;;19.02;3.17;;;17.70;77.40;;;;;;10323494;28;20022;-55
2023/03/31 16:22:23;;;;;;;13.93;2.78;;;17.70;76.10;;;;;;10323170;28;20437;-55
2023/03/31 16:27:24;;;;;;;17.92;2.42;;;17.70;75.90;;;;;;10325538;28;20042;-56
2023/03/31 16:32:25;;;;;;;17.73;3.05;;;17.60;75.60;;;;;;10330940;28;20014;-56
2023/03/31 16:37:26;;;;;;;9.90;1.92;;;17.60;75.60;;;;;;10330486;28;20433;-56
2023/03/31 16:42:27;;;;;;;14.45;2.15;;;17.50;75.80;;;;;;10330291;28;20065;-55
2023/03/31 16:47:27;;;;;;;12.75;2.60;;;17.30;75.70;;;;;;10330141;28;20121;-56
2023/03/31 16:52:28;;;;;;;13.60;2.22;;;17.20;75.80;;;;;;10330187;28;20494;-56
2023/03/31 16:57:29;;;;;;;11.77;1.67;;;17.10;75.70;;;;;;10329837;28;20049;-55
2023/03/31 17:02:29;;;;;;;6.45;1.58;;;17.10;75.70;;;;;;10339164;28;20085;-56
2023/03/31 17:07:30;;;;;;;12.35;2.72;;;17.10;75.70;;;;;;10329575;28;20614;-55
2023/03/31 17:12:30;;;;;;;12.93;2.22;;;17.10;75.70;;;;;;10328068;28;20018;-56
2023/03/31 17:17:31;;;;;;;8.07;1.67;;;17.10;75.70;;;;;;10327016;28;20062;-55
2023/03/31 17:22:32;;;;;;;10.13;1.95;;;17.10;75.40;;;;;;10326302;28;20027;-53
2023/03/31 17:27:34;;;;;;;16.92;2.22;;;17.00;75.50;;;;;;10323230;28;20142;-54
2023/03/31 17:32:35;;;;;;;10.43;2.10;;;17.00;75.70;;;;;;10324711;28;20728;-55
2023/03/31 17:37:36;;;;;;;8.07;2.63;;;17.00;75.60;;;;;;10323220;28;20036;-54
2023/03/31 17:42:37;;;;;;;8.63;1.70;;;17.10;75.20;;;;;;10323904;28;20421;-55
2023/03/31 17:47:39;;;;;;;4.97;1.75;;;17.10;74.80;;;;;;10325360;28;20118;-54
2023/03/31 17:52:39;;;;;;;14.95;2.17;;;17.10;75.00;;;;;;10323912;28;20085;-54
2023/03/31 17:57:40;;;;;;;6.57;1.92;;;17.10;75.20;;;;;;10325624;28;20429;-55
2023/03/31 18:02:42;;;;;;;11.75;2.42;;;17.10;75.40;;;;;;10335320;28;20111;-53
2023/03/31 18:07:42;;;;;;;7.07;3.03;;;17.20;75.30;;;;;;10325115;28;20060;-54
2023/03/31 18:12:43;;;;;;;9.80;1.83;;;17.30;75.10;;;;;;10323904;28;20747;-54
2023/03/31 18:17:44;;;;;;;11.30;2.35;;;17.30;75.10;;;;;;10324749;28;20742;-55
2023/03/31 18:22:44;;;;;;;3.80;1.90;;;17.20;74.20;;;;;;10323563;28;20746;-56
2023/03/31 18:27:46;;;;;;;4.10;1.48;;;17.30;74.00;;;;;;10321806;28;20038;-55
2023/03/31 18:32:46;;;;;;;4.40;1.35;;;17.20;74.00;;;;;;10322498;28;20034;-56
2023/03/31 18:37:47;;;;;;;5.60;1.58;;;17.10;74.20;;;;;;10319859;28;20513;-52
2023/03/31 18:42:50;;;;;;;7.00;1.75;;;17.00;74.40;;;;;;10320179;28;20030;-57
2023/03/31 18:47:51;;;;;;;3.78;1.23;;;17.10;74.60;;;;;;10320177;28;20034;-54
2023/03/31 18:52:53;;;;;;;11.98;2.67;;;17.20;74.30;;;;;;10319859;28;20019;-57
2023/03/31 18:57:53;;;;;;;4.10;1.40;;;17.20;74.20;;;;;;10319321;28;20113;-56
2023/03/31 19:02:54;;;;;;;4.68;2.00;;;17.20;74.20;;;;;;10319009;28;20049;-54
2023/03/31 19:07:55;;;;;;;4.72;1.85;;;17.10;74.30;;;;;;10320461;28;20331;-57
2023/03/31 19:12:55;;;;;;;4.03;1.40;;;17.20;74.00;;;;;;10320557;28;20090;-56
2023/03/31 19:17:56;;;;;;;5.38;1.48;;;17.10;74.30;;;;;;10320952;28;20030;-56
2023/03/31 19:22:57;;;;;;;2.88;1.35;;;17.20;74.50;;;;;;10319032;28;20069;-57
2023/03/31 19:27:58;;;;;;;4.25;1.10;;;17.10;74.50;;;;;;10319711;28;20539;-57
2023/03/31 19:33:00;;;;;;;3.97;2.08;;;17.10;74.50;;;;;;10319497;28;20414;-55
2023/03/31 19:38:01;;;;;;;2.60;1.00;;;17.10;74.50;;;;;;10318705;28;20030;-55
2023/03/31 19:43:02;;;;;;;2.85;1.23;;;17.10;75.10;;;;;;10318545;28;20101;-56
2023/03/31 19:48:03;;;;;;;4.07;0.93;;;17.10;74.60;;;;;;10318024;28;20498;-55
2023/03/31 19:53:04;;;;;;;5.28;1.00;;;17.00;74.50;;;;;;10318289;28;20022;-55
2023/03/31 19:58:05;;;;;;;3.67;1.30;;;17.00;74.50;;;;;;10316237;28;20034;-57
2023/03/31 20:03:06;;;;;;;11.30;1.50;;;17.00;74.60;;;;;;10325481;28;20046;-57
2023/03/31 20:08:07;;;;;;;2.25;0.75;;;16.90;74.70;;;;;;10330122;28;20143;-57
2023/03/31 20:13:08;;;;;;;2.97;0.98;;;16.80;74.90;;;;;;10330003;28;20105;-56
2023/03/31 20:18:09;;;;;;;2.90;1.23;;;16.70;75.00;;;;;;10328852;28;20030;-55
2023/03/31 20:23:10;;;;;;;3.60;0.60;;;16.70;75.10;;;;;;10328649;28;20098;-56
2023/03/31 20:28:10;;;;;;;3.22;2.58;;;16.60;75.10;;;;;;10328936;28;20115;-56
2023/03/31 20:33:11;;;;;;;3.95;1.20;;;16.60;75.10;;;;;;10328721;28;20491;-57
2023/03/31 20:38:12;;;;;;;5.88;1.92;;;16.50;75.10;;;;;;10328332;28;20451;-57
2023/03/31 20:43:12;;;;;;;1.95;1.00;;;16.50;75.10;;;;;;10328820;28;20110;-57
2023/03/31 20:48:13;;;;;;;6.38;1.17;;;16.50;75.00;;;;;;10330070;28;20121;-57
2023/03/31 20:53:14;;;;;;;1.65;0.52;;;16.50;75.00;;;;;;10330139;28;20023;-55
2023/03/31 20:58:15;;;;;;;0.80;0.65;;;16.40;75.00;;;;;;10329905;28;20121;-55
2023/03/31 21:03:15;;;;;;;1.92;0.70;;;16.50;75.10;;;;;;10340255;28;20189;-57
2023/03/31 21:08:16;;;;;;;3.95;0.70;;;16.40;75.00;;;;;;10329776;28;20030;-57
2023/03/31 21:13:17;;;;;;;2.33;0.45;;;16.40;75.00;;;;;;10329017;28;20102;-55
2023/03/31 21:18:17;;;;;;;1.75;0.60;;;16.40;75.30;;;;;;10328488;28;20452;-56
2023/03/31 21:23:19;;;;;;;2.95;0.98;;;16.40;75.10;;;;;;10329083;28;20019;-56
2023/03/31 21:28:24;;;;;;;2.30;0.60;;;16.30;75.20;;;;;;10328623;28;20038;-56
2023/03/31 21:33:25;;;;;;;0.98;0.40;;;16.30;75.30;;;;;;10328691;28;20088;-55
2023/03/31 21:38:27;;;;;;;2.22;1.02;;;16.30;75.30;;;;;;10327300;28;20096;-56
2023/03/31 21:43:28;;;;;;;0.65;0.30;;;16.30;75.30;;;;;;10327821;28;20027;-56
2023/03/31 21:48:29;;;;;;;1.98;0.73;;;16.20;75.30;;;;;;10327499;28;20519;-56
2023/03/31 21:53:30;;;;;;;1.40;0.50;;;16.20;75.10;;;;;;10327797;28;20021;-57
2023/03/31 21:58:31;;;;;;;1.23;0.40;;;16.20;75.20;;;;;;10328018;28;20077;-56
2023/03/31 22:03:33;;;;;;;0.70;0.38;;;16.20;75.20;;;;;;10337603;28;20528;-57
2023/03/31 22:08:36;;;;;;;1.50;0.47;;;16.20;75.10;;;;;;10327141;28;20428;-56
2023/03/31 22:13:37;;;;;;;0.70;0.40;;;16.20;75.10;;;;;;10327103;28;20645;-57
2023/03/31 22:18:38;;;;;;;1.38;0.43;;;16.20;75.10;;;;;;10326796;28;20018;-57
2023/03/31 22:23:39;;;;;;;0.85;0.30;;;16.10;74.90;;;;;;10326078;28;20033;-55
2023/03/31 22:28:40;;;;;;;1.85;0.50;;;16.10;75.00;;;;;;10326333;28;20117;-55
2023/03/31 22:33:40;;;;;;;1.10;0.50;;;16.10;74.90;;;;;;10326428;28;20727;-54
2023/03/31 22:38:41;;;;;;;2.15;0.40;;;16.10;74.90;;;;;;10325974;28;20022;-56
2023/03/31 22:43:42;;;;;;;1.25;0.50;;;16.10;74.90;;;;;;10325331;28;20033;-55
2023/03/31 22:48:46;;;;;;;1.70;0.43;;;16.10;74.90;;;;;;10325235;28;20129;-57
2023/03/31 22:53:52;;;;;;;2.40;1.05;;;16.10;74.90;;;;;;10308600;28;20026;-55
2023/03/31 22:58:55;;;;;;;1.73;0.68;;;16.00;74.80;;;;;;10327787;28;20029;-56
2023/03/31 23:03:56;;;;;;;1.55;0.40;;;16.00;74.70;;;;;;10331819;28;20145;-57
2023/03/31 23:08:57;;;;;;;0.40;0.30;;;16.00;74.80;;;;;;10324656;28;20045;-56
2023/03/31 23:13:58;;;;;;;0.68;0.35;;;16.00;74.80;;;;;;10324759;28;20018;-56
2023/03/31 23:19:00;;;;;;;0.98;0.50;;;16.00;74.80;;;;;;10324920;28;20109;-57
2023/03/31 23:24:02;;;;;;;1.08;0.63;;;16.00;74.80;;;;;;10324880;28;20027;-56
2023/03/31 23:29:03;;;;;;;0.98;0.30;;;16.00;74.80;;;;;;10309551;28;20061;-55
2023/03/31 23:34:04;;;;;;;0.40;0.30;;;16.00;74.80;;;;;;10322919;28;20033;-56
2023/03/31 23:39:07;;;;;;;0.90;0.43;;;16.00;74.80;;;;;;10323028;28;20109;-56
2023/03/31 23:44:08;;;;;;;1.27;0.40;;;16.00;74.80;;;;;;10323883;28;20018;-56
2023/03/31 23:49:09;;;;;;;0.80;0.50;;;16.00;74.90;;;;;;10323456;28;20022;-57
2023/03/31 23:54:10;;;;;;;1.17;0.40;;;15.90;74.80;;;;;;10323860;28;20054;-55
2023/03/31 23:59:11;;;;;;;1.45;0.30;;;15.90;74.80;;;;;;10329099;28;20473;-56
